createdAt,value
2018-12-18T00:02:04.473Z,7.00
2018-12-18T00:04:30.854Z,6.47
2018-12-18T00:06:57.265Z,6.93
2018-12-18T00:09:23.655Z,5.70
2018-12-18T00:11:49.997Z,4.67
2018-12-18T00:14:16.377Z,4.97
2018-12-18T00:16:42.780Z,6.53
2018-12-18T00:19:09.139Z,6.50
2018-12-18T00:21:35.534Z,5.53
2018-12-18T00:24:01.927Z,4.97
2018-12-18T00:26:28.345Z,5.77
2018-12-18T00:28:54.838Z,7.07
2018-12-18T00:31:21.304Z,7.20
2018-12-18T00:33:47.741Z,5.27
2018-12-18T00:36:14.093Z,5.83
2018-12-18T00:38:40.465Z,4.63
2018-12-18T00:41:06.813Z,5.43
2018-12-18T00:43:33.187Z,6.27
2018-12-18T00:45:59.570Z,5.07
2018-12-18T00:48:25.940Z,4.07
2018-12-18T00:50:52.359Z,3.73
2018-12-18T00:53:18.818Z,5.27
2018-12-18T00:55:45.234Z,5.53
2018-12-18T00:58:11.648Z,5.43
2018-12-18T01:00:38.024Z,4.50
2018-12-18T01:03:04.416Z,4.77
2018-12-18T01:05:30.810Z,4.30
2018-12-18T01:07:57.155Z,3.60
2018-12-18T01:10:23.517Z,6.87
2018-12-18T01:12:49.833Z,4.33
2018-12-18T01:15:16.262Z,3.77
2018-12-18T01:17:42.667Z,4.60
2018-12-18T01:20:09.041Z,3.37
2018-12-18T01:22:35.394Z,4.53
2018-12-18T01:25:01.781Z,3.73
2018-12-18T01:27:29.123Z,4.93
2018-12-18T01:29:55.552Z,3.53
2018-12-18T01:32:22.133Z,4.50
2018-12-18T01:34:48.542Z,4.53
2018-12-18T01:37:14.958Z,3.60
2018-12-18T01:39:41.293Z,4.53
2018-12-18T01:42:07.654Z,3.83
2018-12-18T01:44:34.006Z,4.80
2018-12-18T01:47:00.396Z,4.57
2018-12-18T01:49:26.753Z,3.80
2018-12-18T01:51:53.098Z,3.47
2018-12-18T01:54:19.493Z,3.40
2018-12-18T01:56:45.828Z,3.50
2018-12-18T01:59:12.190Z,3.90
2018-12-18T02:01:38.693Z,3.90
2018-12-18T02:04:06.143Z,4.23
2018-12-18T02:06:33.002Z,4.63
2018-12-18T02:09:00.178Z,4.57
2018-12-18T02:11:26.526Z,5.17
2018-12-18T02:13:52.841Z,4.27
2018-12-18T02:16:19.230Z,3.93
2018-12-18T02:18:45.638Z,3.80
2018-12-18T02:21:12.077Z,4.27
2018-12-18T02:23:39.470Z,4.13
2018-12-18T02:26:05.839Z,3.37
2018-12-18T02:28:32.227Z,4.53
2018-12-18T02:30:58.617Z,6.90
2018-12-18T02:33:24.980Z,4.70
2018-12-18T02:35:51.349Z,5.73
2018-12-18T02:38:17.874Z,5.13
2018-12-18T02:40:44.230Z,5.13
2018-12-18T02:43:10.620Z,5.47
2018-12-18T02:45:37.049Z,4.90
2018-12-18T02:48:03.462Z,4.60
2018-12-18T02:50:29.858Z,7.53
2018-12-18T02:52:56.261Z,3.80
2018-12-18T02:55:22.591Z,5.67
2018-12-18T02:57:48.936Z,5.07
2018-12-18T03:00:15.330Z,6.37
2018-12-18T03:02:41.719Z,4.83
2018-12-18T03:05:08.254Z,5.10
2018-12-18T03:07:34.653Z,5.63
2018-12-18T03:10:01.086Z,5.83
2018-12-18T03:12:27.603Z,6.27
2018-12-18T03:14:54.031Z,4.53
2018-12-18T03:17:20.410Z,5.60
2018-12-18T03:19:46.776Z,6.40
2018-12-18T03:22:13.192Z,7.80
2018-12-18T03:24:39.566Z,7.57
2018-12-18T03:27:05.978Z,6.20
2018-12-18T03:29:32.432Z,6.73
2018-12-18T03:32:00.873Z,5.47
2018-12-18T03:34:28.404Z,7.63
2018-12-18T03:36:54.969Z,6.57
2018-12-18T03:39:21.369Z,5.07
2018-12-18T03:41:47.883Z,5.97
2018-12-18T03:44:14.256Z,6.80
2018-12-18T03:46:40.673Z,7.60
2018-12-18T03:49:07.048Z,6.40
2018-12-18T03:51:33.430Z,8.70
2018-12-18T03:53:59.795Z,8.73
2018-12-18T03:56:26.149Z,7.17
2018-12-18T03:58:52.520Z,7.73
2018-12-18T04:01:18.917Z,7.80
2018-12-18T04:03:45.283Z,9.00
2018-12-18T04:06:11.688Z,6.30
2018-12-18T04:08:38.146Z,11.13
2018-12-18T04:11:05.082Z,9.33
2018-12-18T04:13:31.668Z,6.50
2018-12-18T04:15:58.083Z,7.93
2018-12-18T04:18:24.469Z,8.70
2018-12-18T04:20:50.857Z,8.60
2018-12-18T04:23:17.255Z,8.03
2018-12-18T04:25:43.621Z,10.00
2018-12-18T04:28:10.082Z,9.20
2018-12-18T04:30:36.398Z,9.63
2018-12-18T04:33:02.799Z,11.00
2018-12-18T04:35:29.140Z,7.80
2018-12-18T04:37:55.602Z,9.33
2018-12-18T04:40:22.015Z,9.07
2018-12-18T04:42:48.413Z,9.77
2018-12-18T04:45:15.755Z,10.47
2018-12-18T04:47:42.428Z,10.43
2018-12-18T04:50:08.789Z,10.10
2018-12-18T04:52:35.125Z,9.40
2018-12-18T04:55:01.599Z,8.87
2018-12-18T04:57:28.075Z,10.83
2018-12-18T04:59:54.466Z,9.27
2018-12-18T05:02:20.871Z,9.83
2018-12-18T05:04:50.493Z,12.17
2018-12-18T05:07:15.781Z,11.20
2018-12-18T05:09:42.099Z,9.67
2018-12-18T05:12:08.459Z,10.43
2018-12-18T05:14:34.820Z,12.13
2018-12-18T05:17:01.189Z,11.73
2018-12-18T05:19:27.711Z,10.03
2018-12-18T05:21:54.195Z,11.80
2018-12-18T05:24:20.541Z,13.70
2018-12-18T05:26:46.971Z,11.20
2018-12-18T05:29:13.443Z,10.83
2018-12-18T05:31:39.844Z,11.47
2018-12-18T05:34:06.237Z,12.60
2018-12-18T05:36:32.642Z,12.50
2018-12-18T05:38:59.058Z,9.33
2018-12-18T05:41:25.483Z,13.77
2018-12-18T05:43:51.944Z,12.17
2018-12-18T05:46:18.291Z,12.00
2018-12-18T05:48:44.679Z,12.77
2018-12-18T05:51:11.084Z,12.47
2018-12-18T05:53:37.450Z,9.03
2018-12-18T05:56:04.383Z,11.77
2018-12-18T05:58:30.740Z,12.27
2018-12-18T06:00:57.109Z,13.80
2018-12-18T06:03:23.477Z,16.37
2018-12-18T06:05:49.869Z,13.40
2018-12-18T06:08:16.280Z,11.30
2018-12-18T06:10:42.623Z,10.57
2018-12-18T06:13:09.010Z,14.13
2018-12-18T06:15:35.352Z,12.47
2018-12-18T06:18:01.763Z,13.10
2018-12-18T06:20:28.121Z,12.67
2018-12-18T06:22:54.539Z,13.30
2018-12-18T06:25:20.933Z,11.10
2018-12-18T06:27:47.284Z,11.70
2018-12-18T06:30:13.720Z,12.40
2018-12-18T06:32:40.094Z,12.80
2018-12-18T06:35:10.227Z,13.50
2018-12-18T06:37:35.042Z,14.17
2018-12-18T06:40:01.394Z,14.03
2018-12-18T06:42:27.762Z,13.90
2018-12-18T06:44:54.136Z,12.27
2018-12-18T06:50:13.099Z,13.47
2018-12-18T06:52:39.487Z,12.60
2018-12-18T06:55:05.909Z,13.20
2018-12-18T06:57:32.351Z,12.57
2018-12-18T06:59:58.994Z,13.57
2018-12-18T07:02:25.490Z,11.20
2018-12-18T07:04:51.915Z,11.90
2018-12-18T07:07:18.299Z,10.13
2018-12-18T07:09:44.697Z,13.00
2018-12-18T07:12:11.103Z,11.77
2018-12-18T07:14:37.563Z,38.23
2018-12-18T07:17:04.106Z,10.73
2018-12-18T07:19:30.565Z,12.87
2018-12-18T07:21:57.021Z,11.53
2018-12-18T07:24:23.447Z,12.10
2018-12-18T07:26:49.846Z,12.43
2018-12-18T07:29:16.325Z,11.80
2018-12-18T07:31:42.714Z,17.67
2018-12-18T07:34:09.103Z,14.67
2018-12-18T07:36:35.494Z,10.60
2018-12-18T07:39:02.042Z,11.47
2018-12-18T07:41:28.423Z,11.30
2018-12-18T07:43:54.764Z,13.00
2018-12-18T07:46:21.233Z,11.70
2018-12-18T07:48:47.722Z,12.20
2018-12-18T07:51:14.254Z,12.07
2018-12-18T07:53:40.774Z,8.50
2018-12-18T07:56:07.245Z,10.00
2018-12-18T07:58:33.754Z,11.37
2018-12-18T08:01:00.375Z,11.13
2018-12-18T08:03:26.834Z,10.87
2018-12-18T08:05:54.226Z,11.73
2018-12-18T08:08:20.837Z,12.40
2018-12-18T08:10:47.293Z,12.17
2018-12-18T08:13:13.836Z,15.03
2018-12-18T08:15:40.419Z,14.20
2018-12-18T08:18:06.977Z,11.70
2018-12-18T08:20:33.423Z,13.73
2018-12-18T08:22:59.799Z,12.70
2018-12-18T08:25:26.198Z,12.80
2018-12-18T08:27:52.557Z,12.97
2018-12-18T08:30:18.941Z,14.67
2018-12-18T08:32:45.437Z,14.27
2018-12-18T08:35:12.019Z,16.20
2018-12-18T08:37:39.293Z,13.77
2018-12-18T08:40:06.432Z,14.40
2018-12-18T08:42:32.827Z,14.90
2018-12-18T08:45:06.331Z,15.30
2018-12-18T08:47:32.841Z,14.17
2018-12-18T08:49:59.250Z,12.90
2018-12-18T08:52:25.681Z,18.37
2018-12-18T08:54:52.146Z,15.27
2018-12-18T08:57:18.562Z,15.53
2018-12-18T09:02:39.620Z,15.53
2018-12-18T09:05:06.078Z,15.43
2018-12-18T09:07:32.431Z,14.57
2018-12-18T09:09:58.809Z,16.80
2018-12-18T09:12:25.229Z,15.63
2018-12-18T09:14:56.756Z,17.93
2018-12-18T09:17:25.288Z,15.03
2018-12-18T09:19:51.693Z,12.93
2018-12-18T09:22:18.053Z,18.97
2018-12-18T09:24:44.402Z,15.87
2018-12-18T09:27:10.847Z,18.70
2018-12-18T09:29:37.233Z,18.27
2018-12-18T09:32:03.718Z,21.63
2018-12-18T09:34:30.165Z,21.50
2018-12-18T09:36:56.560Z,17.17
2018-12-18T09:39:25.056Z,18.83
2018-12-18T09:41:53.508Z,18.40
2018-12-18T09:44:19.862Z,22.00
2018-12-18T09:46:46.332Z,20.67
2018-12-18T09:49:13.713Z,21.07
2018-12-18T09:51:40.317Z,19.50
2018-12-18T09:54:07.108Z,22.90
2018-12-18T09:56:35.755Z,19.33
2018-12-18T09:59:02.238Z,19.33
2018-12-18T10:01:28.882Z,23.80
2018-12-18T10:03:55.264Z,22.80
2018-12-18T10:06:21.658Z,22.07
2018-12-18T10:08:48.360Z,20.07
2018-12-18T10:11:14.786Z,20.13
2018-12-18T10:16:35.169Z,17.97
2018-12-18T10:19:01.709Z,27.13
2018-12-18T10:21:28.338Z,22.67
2018-12-18T10:23:54.791Z,21.53
2018-12-18T10:26:21.292Z,20.80
2018-12-18T10:28:47.690Z,19.73
2018-12-18T10:31:15.254Z,19.23
2018-12-18T10:33:41.711Z,22.53
2018-12-18T10:36:08.162Z,19.20
2018-12-18T10:38:34.570Z,19.93
2018-12-18T10:41:01.487Z,24.07
2018-12-18T10:43:28.036Z,20.97
2018-12-18T10:45:54.561Z,19.53
2018-12-18T10:48:20.976Z,21.73
2018-12-18T10:50:47.502Z,18.07
2018-12-18T10:53:13.998Z,21.37
2018-12-18T10:55:40.472Z,20.30
2018-12-18T10:58:06.866Z,21.57
2018-12-18T11:00:40.655Z,21.03
2018-12-18T11:03:07.325Z,20.03
2018-12-18T11:05:34.928Z,19.23
2018-12-18T11:08:01.999Z,20.53
2018-12-18T11:10:28.784Z,28.20
2018-12-18T11:13:01.309Z,18.43
2018-12-18T11:15:27.830Z,22.63
2018-12-18T11:17:54.522Z,20.33
2018-12-18T11:20:20.983Z,23.27
2018-12-18T11:22:47.370Z,22.17
2018-12-18T11:25:13.887Z,18.90
2018-12-18T11:27:40.336Z,19.07
2018-12-18T11:30:06.960Z,20.93
2018-12-18T11:32:33.530Z,21.33
2018-12-18T11:34:59.968Z,18.33
2018-12-18T11:37:26.408Z,24.07
2018-12-18T11:39:53.049Z,17.40
2018-12-18T11:42:19.495Z,18.00
2018-12-18T11:44:45.986Z,17.47
2018-12-18T11:47:12.429Z,21.67
2018-12-18T11:49:38.854Z,19.67
2018-12-18T11:52:05.331Z,20.10
2018-12-18T11:54:31.750Z,22.87
2018-12-18T11:56:58.189Z,18.20
2018-12-18T11:59:24.731Z,20.63
2018-12-18T12:01:51.195Z,20.90
2018-12-18T12:04:17.723Z,20.83
2018-12-18T12:06:45.201Z,23.40
2018-12-18T12:09:11.557Z,20.70
2018-12-18T12:11:37.959Z,22.90
2018-12-18T12:14:04.379Z,21.47
2018-12-18T12:16:30.963Z,21.50
2018-12-18T12:18:57.461Z,21.33
2018-12-18T12:21:23.849Z,21.97
2018-12-18T12:23:50.348Z,21.87
2018-12-18T12:26:22.691Z,23.60
2018-12-18T12:28:49.175Z,26.00
2018-12-18T12:31:16.115Z,18.60
2018-12-18T12:33:42.492Z,22.93
2018-12-18T12:36:08.986Z,22.07
2018-12-18T12:38:35.405Z,16.63
2018-12-18T12:41:01.798Z,24.50
2018-12-18T12:43:28.233Z,20.57
2018-12-18T12:45:54.713Z,22.23
2018-12-18T12:48:23.206Z,22.03
2018-12-18T12:50:49.613Z,21.73
2018-12-18T12:53:16.599Z,22.60
2018-12-18T12:55:42.980Z,20.73
2018-12-18T12:58:09.485Z,19.53
2018-12-18T13:00:35.925Z,20.13
2018-12-18T13:03:02.405Z,27.87
2018-12-18T13:05:28.757Z,21.67
2018-12-18T13:07:56.192Z,21.03
2018-12-18T13:10:22.800Z,23.50
2018-12-18T13:12:49.309Z,21.63
2018-12-18T13:15:15.738Z,23.70
2018-12-18T13:17:42.233Z,23.57
2018-12-18T13:20:08.706Z,26.77
2018-12-18T13:22:35.100Z,23.23
2018-12-18T13:25:01.533Z,26.27
2018-12-18T13:27:27.959Z,23.47
2018-12-18T13:29:54.737Z,24.17
2018-12-18T13:32:21.345Z,23.87
2018-12-18T13:34:47.969Z,20.73
2018-12-18T13:37:14.454Z,24.80
2018-12-18T13:39:41.111Z,23.57
2018-12-18T13:42:08.116Z,26.63
2018-12-18T13:44:34.713Z,22.17
2018-12-18T13:47:01.496Z,25.87
2018-12-18T13:49:28.012Z,25.37
2018-12-18T13:51:54.584Z,27.70
2018-12-18T13:54:21.004Z,25.20
2018-12-18T13:56:47.491Z,28.47
2018-12-18T13:59:13.924Z,25.57
2018-12-18T14:01:41.182Z,28.70
2018-12-18T14:04:07.600Z,24.97
2018-12-18T14:06:35.026Z,26.60
2018-12-18T14:09:16.321Z,31.70
2018-12-18T14:11:42.776Z,24.93
2018-12-18T14:14:09.180Z,26.13
2018-12-18T14:16:35.604Z,24.13
2018-12-18T14:19:02.166Z,27.30
2018-12-18T14:21:28.714Z,27.67
2018-12-18T14:23:55.089Z,28.43
2018-12-18T14:26:22.008Z,27.00
2018-12-18T14:28:48.457Z,27.03
2018-12-18T14:31:14.947Z,30.47
2018-12-18T14:33:41.283Z,25.23
2018-12-18T14:36:07.757Z,25.83
2018-12-18T14:38:34.406Z,24.20
2018-12-18T14:41:00.919Z,26.00
2018-12-18T14:43:27.451Z,25.33
2018-12-18T14:45:53.885Z,30.87
2018-12-18T14:48:20.319Z,25.93
2018-12-18T14:50:46.715Z,28.27
2018-12-18T14:53:13.236Z,23.77
2018-12-18T14:55:39.895Z,29.83
2018-12-18T14:58:06.567Z,27.53
2018-12-18T15:00:33.184Z,28.97
2018-12-18T15:02:59.701Z,25.70
2018-12-18T15:05:26.225Z,25.20
2018-12-18T15:07:52.698Z,25.73
2018-12-18T15:10:19.147Z,27.73
2018-12-18T15:12:48.490Z,31.13
2018-12-18T15:15:14.914Z,27.10
2018-12-18T15:17:41.319Z,29.27
2018-12-18T15:20:07.758Z,22.20
2018-12-18T15:22:34.292Z,27.70
2018-12-18T15:25:00.827Z,27.47
2018-12-18T15:27:27.189Z,27.13
2018-12-18T15:29:53.832Z,24.30
2018-12-18T15:32:20.457Z,27.57
2018-12-18T15:34:47.019Z,23.13
2018-12-18T15:37:13.448Z,25.90
2018-12-18T15:39:39.868Z,23.73
2018-12-18T15:42:06.315Z,23.87
2018-12-18T15:44:32.878Z,25.13
2018-12-18T15:46:59.341Z,23.67
2018-12-18T15:49:25.916Z,23.73
2018-12-18T15:51:52.281Z,26.00
2018-12-18T15:54:18.811Z,26.40
2018-12-18T15:56:45.287Z,24.57
2018-12-18T15:59:11.695Z,23.13
2018-12-18T16:01:38.080Z,24.10
2018-12-18T16:04:04.567Z,24.10
2018-12-18T16:06:31.107Z,27.63
2018-12-18T16:08:57.591Z,23.13
2018-12-18T16:11:23.971Z,22.80
2018-12-18T16:13:50.397Z,25.93
2018-12-18T16:16:17.053Z,23.30
2018-12-18T16:18:43.564Z,30.20
2018-12-18T16:21:10.498Z,24.80
2018-12-18T16:23:37.697Z,24.57
2018-12-18T16:26:04.592Z,20.70
2018-12-18T16:28:30.925Z,21.13
2018-12-18T16:30:57.286Z,20.20
2018-12-18T16:33:23.838Z,16.47
2018-12-18T16:35:50.292Z,16.90
2018-12-18T16:38:16.673Z,20.23
2018-12-18T16:40:43.103Z,17.00
2018-12-18T16:43:09.536Z,16.00
2018-12-18T16:45:36.047Z,15.80
2018-12-18T16:48:02.506Z,17.70
2018-12-18T16:50:29.061Z,18.27
2018-12-18T16:52:55.547Z,16.53
2018-12-18T16:55:22.066Z,16.60
2018-12-18T16:57:48.569Z,20.37
2018-12-18T17:00:14.913Z,17.63
2018-12-18T17:02:41.444Z,18.40
2018-12-18T17:05:07.888Z,18.57
2018-12-18T17:07:34.446Z,24.17
2018-12-18T17:10:00.871Z,19.53
2018-12-18T17:12:27.429Z,16.63
2018-12-18T17:14:54.050Z,16.57
2018-12-18T17:17:20.603Z,16.50
2018-12-18T17:19:47.021Z,20.07
2018-12-18T17:22:13.411Z,17.73
2018-12-18T17:24:39.800Z,17.83
2018-12-18T17:27:06.243Z,17.83
2018-12-18T17:29:32.855Z,18.30
2018-12-18T17:31:59.275Z,17.67
2018-12-18T17:34:25.742Z,20.80
2018-12-18T17:36:52.101Z,19.83
2018-12-18T17:39:18.470Z,23.50
2018-12-18T17:42:00.111Z,19.07
2018-12-18T17:44:26.483Z,23.83
2018-12-18T17:46:52.841Z,20.67
2018-12-18T17:49:19.201Z,20.77
2018-12-18T17:51:45.578Z,35.13
2018-12-18T17:54:12.244Z,24.80
2018-12-18T17:56:38.694Z,22.37
2018-12-18T17:59:07.063Z,20.00
2018-12-18T18:01:33.656Z,23.20
2018-12-18T18:04:00.459Z,22.43
2018-12-18T18:06:26.851Z,22.47
2018-12-18T18:08:53.253Z,23.97
2018-12-18T18:11:19.827Z,23.27
2018-12-18T18:13:46.480Z,23.70
2018-12-18T18:16:12.911Z,25.00
2018-12-18T18:18:39.318Z,23.33
2018-12-18T18:21:06.849Z,26.57
2018-12-18T18:23:34.298Z,21.40
2018-12-18T18:26:01.106Z,24.37
2018-12-18T18:28:27.677Z,25.23
2018-12-18T18:30:54.749Z,24.67
2018-12-18T18:33:21.187Z,22.73
2018-12-18T18:35:47.521Z,24.70
2018-12-18T18:38:14.966Z,23.80
2018-12-18T18:40:41.564Z,25.90
2018-12-18T18:43:07.984Z,27.20
2018-12-18T18:45:34.510Z,26.33
2018-12-18T18:48:01.055Z,24.83
2018-12-18T18:50:27.467Z,25.63
2018-12-18T18:52:53.990Z,24.13
2018-12-18T18:55:20.405Z,27.73
2018-12-18T18:57:46.781Z,27.77
2018-12-18T19:00:13.206Z,29.17
2018-12-18T19:02:39.719Z,23.73
2018-12-18T19:05:06.199Z,22.77
2018-12-18T19:07:32.597Z,23.37
2018-12-18T19:09:59.060Z,21.27
2018-12-18T19:12:25.497Z,22.40
2018-12-18T19:14:51.818Z,25.07
2018-12-18T19:17:18.174Z,30.27
2018-12-18T19:19:44.648Z,30.07
2018-12-18T19:22:11.057Z,25.47
2018-12-18T19:24:37.409Z,29.60
2018-12-18T19:27:03.775Z,29.47
2018-12-18T19:29:30.215Z,23.40
2018-12-18T19:31:56.641Z,19.90
2018-12-18T19:34:23.158Z,25.63
2018-12-18T19:36:49.772Z,23.40
2018-12-18T19:39:16.201Z,22.43
2018-12-18T19:41:42.863Z,23.77
2018-12-18T19:44:09.316Z,23.37
2018-12-18T19:46:35.746Z,20.07
2018-12-18T19:49:02.182Z,24.03
2018-12-18T19:51:29.190Z,22.63
2018-12-18T19:53:55.672Z,21.80
2018-12-18T19:56:22.138Z,27.20
2018-12-18T19:58:48.738Z,26.03
2018-12-18T20:01:16.588Z,21.77
2018-12-18T20:03:42.971Z,22.93
2018-12-18T20:06:09.324Z,23.97
2018-12-18T20:08:35.790Z,22.93
2018-12-18T20:11:02.226Z,29.47
2018-12-18T20:13:28.642Z,23.80
2018-12-18T20:15:56.354Z,27.50
2018-12-18T20:18:22.742Z,23.60
2018-12-18T20:20:49.101Z,25.73
2018-12-18T20:23:15.610Z,32.97
2018-12-18T20:25:42.010Z,28.33
2018-12-18T20:28:08.606Z,21.17
2018-12-18T20:30:35.773Z,25.73
2018-12-18T20:33:02.305Z,21.43
2018-12-18T20:35:28.847Z,23.70
2018-12-18T20:37:55.242Z,18.83
2018-12-18T20:40:21.694Z,23.37
2018-12-18T20:42:48.081Z,25.30
2018-12-18T20:45:14.530Z,23.87
2018-12-18T20:47:40.970Z,22.67
2018-12-18T20:50:07.369Z,25.90
2018-12-18T20:52:33.912Z,20.97
2018-12-18T20:55:00.406Z,21.40
2018-12-18T20:57:26.840Z,22.63
2018-12-18T20:59:53.226Z,25.07
2018-12-18T21:02:19.706Z,22.80
2018-12-18T21:04:46.374Z,25.60
2018-12-18T21:07:12.783Z,29.07
2018-12-18T21:09:39.146Z,23.67
2018-12-18T21:12:05.611Z,23.53
2018-12-18T21:14:32.108Z,20.63
2018-12-18T21:16:59.488Z,24.40
2018-12-18T21:19:25.947Z,24.73
2018-12-18T21:21:52.415Z,25.50
2018-12-18T21:24:18.890Z,24.13
2018-12-18T21:26:45.238Z,26.27
2018-12-18T21:29:12.195Z,21.20
2018-12-18T21:31:38.565Z,22.40
2018-12-18T21:34:04.943Z,26.03
2018-12-18T21:36:31.898Z,23.37
2018-12-18T21:38:58.265Z,24.20
2018-12-18T21:41:24.648Z,25.07
2018-12-18T21:43:54.780Z,26.27
2018-12-18T21:46:21.331Z,23.73
2018-12-18T21:48:48.174Z,26.63
2018-12-18T21:51:14.852Z,23.30
2018-12-18T21:53:48.433Z,127.93
2018-12-18T21:56:15.104Z,25.73
2018-12-18T21:58:42.349Z,27.13
2018-12-18T22:01:08.860Z,21.50
2018-12-18T22:03:35.336Z,25.73
2018-12-18T22:06:05.866Z,21.93
2018-12-18T22:08:36.857Z,24.23
2018-12-18T22:11:01.467Z,25.73
2018-12-18T22:13:27.976Z,25.70
2018-12-18T22:15:54.289Z,21.37
2018-12-18T22:18:20.731Z,23.93
2018-12-18T22:20:47.135Z,22.93
2018-12-18T22:23:13.744Z,23.80
2018-12-18T22:25:40.127Z,25.80
2018-12-18T22:28:06.723Z,23.13
2018-12-18T22:30:33.121Z,23.03
2018-12-18T22:33:00.619Z,24.07
2018-12-18T22:35:27.076Z,22.07
2018-12-18T22:37:53.480Z,26.83
2018-12-18T22:40:19.815Z,25.50
2018-12-18T22:42:46.173Z,20.53
2018-12-18T22:45:12.616Z,25.53
2018-12-18T22:47:39.013Z,23.40
2018-12-18T22:50:06.013Z,22.13
2018-12-18T22:52:32.848Z,21.07
2018-12-18T22:54:59.215Z,20.90
2018-12-18T22:57:25.557Z,23.57
2018-12-18T22:59:51.898Z,22.40
2018-12-18T23:02:18.356Z,23.30
2018-12-18T23:04:45.195Z,18.33
2018-12-18T23:07:12.099Z,20.90
2018-12-18T23:09:38.598Z,20.57
2018-12-18T23:12:05.059Z,22.27
2018-12-18T23:14:31.423Z,23.60
2018-12-18T23:16:57.761Z,27.30
2018-12-18T23:19:24.150Z,20.83
2018-12-18T23:21:50.464Z,19.17
2018-12-18T23:24:16.859Z,21.27
2018-12-18T23:26:43.228Z,19.60
2018-12-18T23:29:10.436Z,20.30
2018-12-18T23:31:36.873Z,19.67
2018-12-18T23:34:03.293Z,21.40
2018-12-18T23:36:29.742Z,21.23
2018-12-18T23:38:57.011Z,20.73
2018-12-18T23:41:23.660Z,24.20
2018-12-18T23:43:50.069Z,22.40
2018-12-18T23:46:16.427Z,24.20
2018-12-18T23:48:43.760Z,23.60
2018-12-18T23:51:10.221Z,23.53
2018-12-18T23:53:36.603Z,20.67
2018-12-18T23:56:03.025Z,25.37
2018-12-18T23:58:29.414Z,26.13
